Terminal Aerodrome Forecast
Issued by NWS

Home | Current Version | Previous Version | Graphics & Text | Print | Product List | Glossary On
Versions: 1 2 3 4 5 6 7 8 9 10 11 12 13 14 15 16 17 18 19 20 21 22 23 24 25 26 27 28 29 30 31 32 33
000
FTUS43 KGRB 112300
TAFRHI
TAF
KRHI 112336Z 1200/1224 21007KT P6SM SCT035 BKN070
      TEMPO 1201/1204 BKN035
     FM120400 23004KT 6SM BR BKN025 BKN040
      TEMPO 1209/1213 3SM BR BKN005 BKN010
     FM121400 25007KT P6SM VCSH BKN030 BKN060 PROB30 1221/1224 5SM
      TSRA OVC020CB=

USA.gov is the U.S. government's official web portal to all federal, state and local government web resources and services.